sensor_id;sensor_type;location;lat;lon;timestamp;pressure;altitude;pressure_sealevel;temperature;humidity
53546;BME280;39432;51.902;10.844;2022-08-18T01:45:18;99044.78;;;21.72;69.42
53546;BME280;39432;51.902;10.844;2022-08-18T01:47:48;99052.66;;;21.58;70.14
53546;BME280;39432;51.902;10.844;2022-08-18T01:50:18;99050.06;;;21.41;71.37
53546;BME280;39432;51.902;10.844;2022-08-18T01:52:48;99051.38;;;21.55;71.23
53546;BME280;39432;51.902;10.844;2022-08-18T01:55:19;99043.47;;;21.45;72.05
53546;BME280;39432;51.902;10.844;2022-08-18T01:57:49;99045.28;;;21.41;73.41
53546;BME280;39432;51.902;10.844;2022-08-18T02:00:21;99038.72;;;21.46;73.19
53546;BME280;39432;51.902;10.844;2022-08-18T02:02:51;99041.44;;;20.79;74.32
53546;BME280;39432;51.902;10.844;2022-08-18T02:05:33;99046.03;;;20.25;75.71
53546;BME280;39432;51.902;10.844;2022-08-18T02:08:06;99046.03;;;20.25;75.80
53546;BME280;39432;51.902;10.844;2022-08-18T02:10:37;99036.34;;;20.61;74.36
53546;BME280;39432;51.902;10.844;2022-08-18T02:13:07;99036.41;;;20.52;74.93
53546;BME280;39432;51.902;10.844;2022-08-18T02:15:40;99038.19;;;20.77;73.98
53546;BME280;39432;51.902;10.844;2022-08-18T02:18:13;99034.72;;;20.81;73.94
53546;BME280;39432;51.902;10.844;2022-08-18T02:21:06;99031.97;;;20.93;73.79
53546;BME280;39432;51.902;10.844;2022-08-18T02:23:37;99036.31;;;20.82;74.06
53546;BME280;39432;51.902;10.844;2022-08-18T02:26:18;99036.63;;;20.89;73.37
53546;BME280;39432;51.902;10.844;2022-08-18T02:28:49;99043.19;;;20.63;74.56
53546;BME280;39432;51.902;10.844;2022-08-18T02:31:23;99042.44;;;20.75;74.17
53546;BME280;39432;51.902;10.844;2022-08-18T02:33:53;99039.81;;;20.78;74.58
53546;BME280;39432;51.902;10.844;2022-08-18T02:36:23;99042.09;;;20.76;74.68
53546;BME280;39432;51.902;10.844;2022-08-18T02:38:54;99040.75;;;20.32;77.11
53546;BME280;39432;51.902;10.844;2022-08-18T02:41:26;99042.31;;;20.42;76.96
53546;BME280;39432;51.902;10.844;2022-08-18T02:43:57;99045.22;;;19.95;77.50
53546;BME280;39432;51.902;10.844;2022-08-18T02:46:29;99047.38;;;19.08;81.77
53546;BME280;39432;51.902;10.844;2022-08-18T02:48:59;99040.19;;;19.15;82.40
53546;BME280;39432;51.902;10.844;2022-08-18T02:51:29;99041.31;;;19.87;79.74
53546;BME280;39432;51.902;10.844;2022-08-18T02:53:59;99039.28;;;20.35;77.17
53546;BME280;39432;51.902;10.844;2022-08-18T02:56:30;99042.22;;;20.59;76.37
53546;BME280;39432;51.902;10.844;2022-08-18T02:59:10;99044.34;;;20.62;76.01
53546;BME280;39432;51.902;10.844;2022-08-18T03:01:44;99042.78;;;20.73;75.85
53546;BME280;39432;51.902;10.844;2022-08-18T03:04:17;99046.38;;;20.74;75.60
53546;BME280;39432;51.902;10.844;2022-08-18T03:06:55;99041.97;;;20.73;75.48
53546;BME280;39432;51.902;10.844;2022-08-18T03:09:25;99042.63;;;20.49;77.73
53546;BME280;39432;51.902;10.844;2022-08-18T03:11:56;99037.63;;;20.84;76.41
53546;BME280;39432;51.902;10.844;2022-08-18T03:14:26;99035.25;;;20.95;76.24
53546;BME280;39432;51.902;10.844;2022-08-18T03:16:58;99035.50;;;20.81;76.75
53546;BME280;39432;51.902;10.844;2022-08-18T03:19:29;99033.75;;;20.76;77.59
53546;BME280;39432;51.902;10.844;2022-08-18T03:22:00;99032.94;;;20.76;77.96
53546;BME280;39432;51.902;10.844;2022-08-18T03:24:52;99039.50;;;21.13;77.34
53546;BME280;39432;51.902;10.844;2022-08-18T03:27:22;99045.41;;;20.49;81.11
53546;BME280;39432;51.902;10.844;2022-08-18T03:29:51;99048.03;;;20.16;84.24
53546;BME280;39432;51.902;10.844;2022-08-18T03:32:26;99056.13;;;20.30;84.85
53546;BME280;39432;51.902;10.844;2022-08-18T03:34:56;99040.53;;;20.46;84.87
53546;BME280;39432;51.902;10.844;2022-08-18T03:37:26;99042.06;;;20.35;86.55
53546;BME280;39432;51.902;10.844;2022-08-18T03:39:55;99047.97;;;20.54;86.22
53546;BME280;39432;51.902;10.844;2022-08-18T03:42:25;99049.22;;;20.36;87.83
53546;BME280;39432;51.902;10.844;2022-08-18T03:44:55;99054.69;;;20.23;89.64
53546;BME280;39432;51.902;10.844;2022-08-18T03:47:27;99048.25;;;20.32;88.87
53546;BME280;39432;51.902;10.844;2022-08-18T03:49:57;99052.13;;;20.18;89.08
53546;BME280;39432;51.902;10.844;2022-08-18T03:52:27;99055.25;;;19.79;89.00
53546;BME280;39432;51.902;10.844;2022-08-18T03:54:56;99062.00;;;19.52;89.52
53546;BME280;39432;51.902;10.844;2022-08-18T03:57:28;99059.03;;;19.65;88.93
53546;BME280;39432;51.902;10.844;2022-08-18T04:00:06;99057.22;;;19.69;89.70
53546;BME280;39432;51.902;10.844;2022-08-18T04:02:40;99063.59;;;20.08;87.28
53546;BME280;39432;51.902;10.844;2022-08-18T04:05:09;99056.97;;;19.92;88.80
53546;BME280;39432;51.902;10.844;2022-08-18T04:07:40;99061.97;;;20.37;87.20
53546;BME280;39432;51.902;10.844;2022-08-18T04:10:10;99061.41;;;20.52;85.64
53546;BME280;39432;51.902;10.844;2022-08-18T04:12:45;99062.84;;;20.29;86.75
53546;BME280;39432;51.902;10.844;2022-08-18T04:15:17;99064.66;;;20.54;86.08
53546;BME280;39432;51.902;10.844;2022-08-18T04:17:49;99057.13;;;20.55;85.64
53546;BME280;39432;51.902;10.844;2022-08-18T04:20:31;99059.34;;;20.40;86.20
53546;BME280;39432;51.902;10.844;2022-08-18T04:23:01;99057.03;;;20.72;85.35
53546;BME280;39432;51.902;10.844;2022-08-18T04:25:31;99059.06;;;20.63;85.46
53546;BME280;39432;51.902;10.844;2022-08-18T04:28:01;99075.38;;;20.64;84.96
53546;BME280;39432;51.902;10.844;2022-08-18T04:30:30;99068.69;;;20.65;85.30
53546;BME280;39432;51.902;10.844;2022-08-18T04:33:03;99070.81;;;20.89;83.99
53546;BME280;39432;51.902;10.844;2022-08-18T04:35:32;99077.78;;;20.74;85.07
53546;BME280;39432;51.902;10.844;2022-08-18T04:38:02;99076.34;;;20.39;86.20
53546;BME280;39432;51.902;10.844;2022-08-18T04:40:33;99075.00;;;20.74;86.16
53546;BME280;39432;51.902;10.844;2022-08-18T04:43:02;99070.91;;;20.51;86.90
53546;BME280;39432;51.902;10.844;2022-08-18T04:45:32;99071.00;;;20.63;86.51
53546;BME280;39432;51.902;10.844;2022-08-18T04:48:05;99070.81;;;20.89;86.09
53546;BME280;39432;51.902;10.844;2022-08-18T04:50:38;99068.47;;;20.70;85.88
53546;BME280;39432;51.902;10.844;2022-08-18T04:53:08;99075.06;;;20.36;89.20
53546;BME280;39432;51.902;10.844;2022-08-18T04:55:53;99076.81;;;-144.08;89.58
53546;BME280;39432;51.902;10.844;2022-08-18T04:58:23;99082.38;;;20.41;89.49
53546;BME280;39432;51.902;10.844;2022-08-18T05:00:57;99077.41;;;20.25;91.25
53546;BME280;39432;51.902;10.844;2022-08-18T05:03:29;99085.28;;;20.15;91.22
53546;BME280;39432;51.902;10.844;2022-08-18T05:06:03;99081.97;;;19.92;92.34
53546;BME280;39432;51.902;10.844;2022-08-18T05:08:33;99082.19;;;19.78;92.07
53546;BME280;39432;51.902;10.844;2022-08-18T05:11:03;99078.34;;;19.78;94.63
53546;BME280;39432;51.902;10.844;2022-08-18T05:13:32;99074.34;;;19.71;93.01
53546;BME280;39432;51.902;10.844;2022-08-18T05:16:05;99089.50;;;20.21;90.19
53546;BME280;39432;51.902;10.844;2022-08-18T05:18:46;99090.22;;;20.47;88.39
53546;BME280;39432;51.902;10.844;2022-08-18T05:21:18;99089.22;;;20.14;89.56
53546;BME280;39432;51.902;10.844;2022-08-18T05:23:50;99083.00;;;20.76;87.64
53546;BME280;39432;51.902;10.844;2022-08-18T05:26:19;99099.84;;;21.00;86.51
53546;BME280;39432;51.902;10.844;2022-08-18T05:28:49;99098.53;;;20.98;85.94
53546;BME280;39432;51.902;10.844;2022-08-18T05:31:31;99096.34;;;21.91;82.42
53546;BME280;39432;51.902;10.844;2022-08-18T05:34:04;99096.09;;;21.83;82.80
53546;BME280;39432;51.902;10.844;2022-08-18T05:36:50;99096.88;;;22.17;81.50
53546;BME280;39432;51.902;10.844;2022-08-18T05:39:25;99097.09;;;22.61;80.16
53546;BME280;39432;51.902;10.844;2022-08-18T05:42:02;99096.38;;;22.88;78.65
53546;BME280;39432;51.902;10.844;2022-08-18T05:44:34;99102.88;;;21.95;82.75
53546;BME280;39432;51.902;10.844;2022-08-18T05:47:10;99107.00;;;22.34;81.46
53546;BME280;39432;51.902;10.844;2022-08-18T05:49:44;99102.78;;;22.52;81.14
53546;BME280;39432;51.902;10.844;2022-08-18T05:52:17;99099.44;;;22.22;82.86
53546;BME280;39432;51.902;10.844;2022-08-18T05:54:52;99099.66;;;22.17;82.91
53546;BME280;39432;51.902;10.844;2022-08-18T05:57:40;99101.28;;;22.30;82.95
53546;BME280;39432;51.902;10.844;2022-08-18T06:00:12;99107.09;;;22.50;82.37
53546;BME280;39432;51.902;10.844;2022-08-18T06:02:46;99110.22;;;22.60;82.30
53546;BME280;39432;51.902;10.844;2022-08-18T06:05:25;99099.31;;;23.20;79.97
53546;BME280;39432;51.902;10.844;2022-08-18T06:07:58;99102.84;;;23.05;81.55
53546;BME280;39432;51.902;10.844;2022-08-18T06:10:27;99093.13;;;22.74;84.24
53546;BME280;39432;51.902;10.844;2022-08-18T06:12:59;65201.88;;;-144.08;100.00
53546;BME280;39432;51.902;10.844;2022-08-18T06:15:36;65201.88;;;-144.08;100.00
53546;BME280;39432;51.902;10.844;2022-08-18T06:18:24;65201.88;;;-144.08;100.00
53546;BME280;39432;51.902;10.844;2022-08-18T06:24:05;65201.88;;;-144.08;100.00
53546;BME280;39432;51.902;10.844;2022-08-18T06:26:43;65201.88;;;-144.08;100.00
53546;BME280;39432;51.902;10.844;2022-08-18T06:29:33;65201.88;;;-144.08;100.00
53546;BME280;39432;51.902;10.844;2022-08-18T06:32:11;65201.88;;;-144.08;100.00
53546;BME280;39432;51.902;10.844;2022-08-18T06:34:56;65201.88;;;-144.08;100.00
53546;BME280;39432;51.902;10.844;2022-08-18T06:37:34;65201.88;;;-144.08;100.00
53546;BME280;39432;51.902;10.844;2022-08-18T06:40:25;65201.88;;;-144.08;100.00
53546;BME280;39432;51.902;10.844;2022-08-18T06:42:55;65201.88;;;-144.08;100.00
53546;BME280;39432;51.902;10.844;2022-08-18T06:45:36;65201.88;;;-144.08;100.00
53546;BME280;39432;51.902;10.844;2022-08-18T06:48:11;65201.88;;;-144.08;100.00
53546;BME280;39432;51.902;10.844;2022-08-18T06:50:46;65201.88;;;-144.08;100.00
53546;BME280;39432;51.902;10.844;2022-08-18T06:53:19;65201.88;;;-144.08;100.00
53546;BME280;39432;51.902;10.844;2022-08-18T06:55:54;65201.88;;;-144.08;100.00
53546;BME280;39432;51.902;10.844;2022-08-18T06:58:26;65201.88;;;-144.08;100.00
53546;BME280;39432;51.902;10.844;2022-08-18T07:00:58;65201.88;;;-144.08;100.00
53546;BME280;39432;51.902;10.844;2022-08-18T07:03:43;65201.88;;;-144.08;100.00
53546;BME280;39432;51.902;10.844;2022-08-18T07:06:25;65201.88;;;-144.08;100.00
53546;BME280;39432;51.902;10.844;2022-08-18T07:09:21;65201.88;;;-144.08;100.00
53546;BME280;39432;51.902;10.844;2022-08-18T07:12:03;65201.88;;;-144.08;100.00
53546;BME280;39432;51.902;10.844;2022-08-18T07:14:42;65201.88;;;-144.08;100.00
53546;BME280;39432;51.902;10.844;2022-08-18T07:17:19;65201.88;;;-144.08;100.00
53546;BME280;39432;51.902;10.844;2022-08-18T07:20:18;65201.88;;;-144.08;100.00
53546;BME280;39432;51.902;10.844;2022-08-18T07:22:55;65201.88;;;-144.08;100.00
53546;BME280;39432;51.902;10.844;2022-08-18T07:25:34;65201.88;;;-144.08;100.00
53546;BME280;39432;51.902;10.844;2022-08-18T07:28:06;65201.88;;;-144.08;100.00
53546;BME280;39432;51.902;10.844;2022-08-18T07:31:10;65201.88;;;-144.08;100.00
53546;BME280;39432;51.902;10.844;2022-08-18T07:33:48;65201.88;;;-144.08;100.00
53546;BME280;39432;51.902;10.844;2022-08-18T07:36:24;65201.88;;;-144.08;100.00
53546;BME280;39432;51.902;10.844;2022-08-18T07:38:59;65201.88;;;-144.08;100.00
53546;BME280;39432;51.902;10.844;2022-08-18T07:41:38;65201.88;;;-144.08;100.00
53546;BME280;39432;51.902;10.844;2022-08-18T07:44:18;65201.88;;;-144.08;100.00
53546;BME280;39432;51.902;10.844;2022-08-18T07:46:54;65201.88;;;-144.08;100.00
53546;BME280;39432;51.902;10.844;2022-08-18T07:49:28;65201.88;;;-144.08;100.00
53546;BME280;39432;51.902;10.844;2022-08-18T07:52:04;65201.88;;;-144.08;100.00
53546;BME280;39432;51.902;10.844;2022-08-18T07:55:01;65201.88;;;-144.08;100.00
53546;BME280;39432;51.902;10.844;2022-08-18T07:57:43;65201.88;;;-144.08;100.00
53546;BME280;39432;51.902;10.844;2022-08-18T08:00:19;65201.88;;;-144.08;100.00
53546;BME280;39432;51.902;10.844;2022-08-18T08:03:24;65201.88;;;-144.08;100.00
53546;BME280;39432;51.902;10.844;2022-08-18T08:06:03;65201.88;;;-144.08;100.00
53546;BME280;39432;51.902;10.844;2022-08-18T08:08:42;65201.88;;;-144.08;100.00
53546;BME280;39432;51.902;10.844;2022-08-18T08:11:21;65201.88;;;-144.08;100.00
53546;BME280;39432;51.902;10.844;2022-08-18T08:14:03;65201.88;;;-144.08;100.00
53546;BME280;39432;51.902;10.844;2022-08-18T08:16:42;65201.88;;;-144.08;100.00
53546;BME280;39432;51.902;10.844;2022-08-18T08:19:50;65201.88;;;-144.08;100.00
53546;BME280;39432;51.902;10.844;2022-08-18T08:22:30;65201.88;;;-144.08;100.00
53546;BME280;39432;51.902;10.844;2022-08-18T08:25:04;65201.88;;;-144.08;100.00
53546;BME280;39432;51.902;10.844;2022-08-18T08:28:03;65201.88;;;-144.08;100.00
53546;BME280;39432;51.902;10.844;2022-08-18T08:30:43;65201.88;;;-144.08;100.00
53546;BME280;39432;51.902;10.844;2022-08-18T08:33:21;65201.88;;;-144.08;100.00
53546;BME280;39432;51.902;10.844;2022-08-18T08:35:56;65201.88;;;-144.08;100.00
53546;BME280;39432;51.902;10.844;2022-08-18T08:38:37;65201.88;;;-144.08;100.00
53546;BME280;39432;51.902;10.844;2022-08-18T08:41:14;65201.88;;;-144.08;100.00
53546;BME280;39432;51.902;10.844;2022-08-18T08:44:02;65201.88;;;-144.08;100.00
53546;BME280;39432;51.902;10.844;2022-08-18T08:46:42;65201.88;;;-144.08;100.00
53546;BME280;39432;51.902;10.844;2022-08-18T08:49:24;65201.88;;;-144.08;100.00
53546;BME280;39432;51.902;10.844;2022-08-18T08:51:57;65201.88;;;-144.08;100.00
53546;BME280;39432;51.902;10.844;2022-08-18T08:54:37;65201.88;;;-144.08;100.00
53546;BME280;39432;51.902;10.844;2022-08-18T08:57:10;65201.88;;;-144.08;100.00
53546;BME280;39432;51.902;10.844;2022-08-18T08:59:44;65201.88;;;-144.08;100.00
53546;BME280;39432;51.902;10.844;2022-08-18T09:02:47;65201.88;;;-144.08;100.00
53546;BME280;39432;51.902;10.844;2022-08-18T09:05:20;65201.88;;;-144.08;100.00
53546;BME280;39432;51.902;10.844;2022-08-18T09:08:18;65201.88;;;-144.08;100.00
53546;BME280;39432;51.902;10.844;2022-08-18T09:11:05;65201.88;;;-144.08;100.00
53546;BME280;39432;51.902;10.844;2022-08-18T09:13:55;65201.88;;;-144.08;100.00
53546;BME280;39432;51.902;10.844;2022-08-18T09:16:40;65201.88;;;-144.08;100.00
53546;BME280;39432;51.902;10.844;2022-08-18T09:19:39;65201.88;;;-144.08;100.00
53546;BME280;39432;51.902;10.844;2022-08-18T09:22:22;65201.88;;;-144.08;100.00
53546;BME280;39432;51.902;10.844;2022-08-18T09:24:56;65201.88;;;-144.08;100.00
53546;BME280;39432;51.902;10.844;2022-08-18T09:27:34;65201.88;;;-144.08;100.00
53546;BME280;39432;51.902;10.844;2022-08-18T09:30:38;65201.88;;;-144.08;100.00
53546;BME280;39432;51.902;10.844;2022-08-18T09:33:17;65201.88;;;-144.08;100.00
53546;BME280;39432;51.902;10.844;2022-08-18T09:36:15;65201.88;;;-144.08;100.00
53546;BME280;39432;51.902;10.844;2022-08-18T09:38:56;65201.88;;;-144.08;100.00
53546;BME280;39432;51.902;10.844;2022-08-18T09:41:57;65201.88;;;-144.08;100.00
53546;BME280;39432;51.902;10.844;2022-08-18T09:44:57;65201.88;;;-144.08;100.00
53546;BME280;39432;51.902;10.844;2022-08-18T09:47:57;65201.88;;;-144.08;100.00
53546;BME280;39432;51.902;10.844;2022-08-18T09:50:52;65201.88;;;-144.08;100.00
53546;BME280;39432;51.902;10.844;2022-08-18T09:53:51;65201.88;;;-144.08;100.00
53546;BME280;39432;51.902;10.844;2022-08-18T10:03:11;65201.88;;;-144.08;100.00
53546;BME280;39432;51.902;10.844;2022-08-18T10:06:02;65201.88;;;-144.08;100.00
53546;BME280;39432;51.902;10.844;2022-08-18T10:12:39;65201.88;;;-144.08;100.00
53546;BME280;39432;51.902;10.844;2022-08-18T10:15:32;65201.88;;;-144.08;100.00
53546;BME280;39432;51.902;10.844;2022-08-18T10:18:24;65201.88;;;-144.08;100.00
53546;BME280;39432;51.902;10.844;2022-08-18T10:21:08;65201.88;;;-144.08;100.00
53546;BME280;39432;51.902;10.844;2022-08-18T10:23:51;65201.88;;;-144.08;100.00
53546;BME280;39432;51.902;10.844;2022-08-18T10:27:06;65201.88;;;-144.08;100.00
53546;BME280;39432;51.902;10.844;2022-08-18T10:29:56;65201.88;;;-144.08;100.00
53546;BME280;39432;51.902;10.844;2022-08-18T10:32:41;65201.88;;;-144.08;100.00
53546;BME280;39432;51.902;10.844;2022-08-18T10:38:41;65201.88;;;-144.08;100.00
53546;BME280;39432;51.902;10.844;2022-08-18T10:41:51;65201.88;;;-144.08;100.00
53546;BME280;39432;51.902;10.844;2022-08-18T10:44:25;65201.88;;;-144.08;100.00
53546;BME280;39432;51.902;10.844;2022-08-18T10:46:59;65201.88;;;-144.08;100.00
53546;BME280;39432;51.902;10.844;2022-08-18T10:49:38;65201.88;;;-144.08;100.00
53546;BME280;39432;51.902;10.844;2022-08-18T10:52:36;65201.88;;;-144.08;100.00
53546;BME280;39432;51.902;10.844;2022-08-18T10:55:48;65201.88;;;-144.08;100.00
53546;BME280;39432;51.902;10.844;2022-08-18T10:58:43;65201.88;;;-144.08;100.00
53546;BME280;39432;51.902;10.844;2022-08-18T11:01:29;65201.88;;;-144.08;100.00
53546;BME280;39432;51.902;10.844;2022-08-18T11:04:26;65201.88;;;-144.08;100.00
53546;BME280;39432;51.902;10.844;2022-08-18T11:07:07;65201.88;;;-144.08;100.00
53546;BME280;39432;51.902;10.844;2022-08-18T11:09:38;65201.88;;;-144.08;100.00
53546;BME280;39432;51.902;10.844;2022-08-18T11:15:46;65201.88;;;-144.08;100.00
53546;BME280;39432;51.902;10.844;2022-08-18T11:18:29;65201.88;;;-144.08;100.00
53546;BME280;39432;51.902;10.844;2022-08-18T11:21:30;65201.88;;;-144.08;100.00
53546;BME280;39432;51.902;10.844;2022-08-18T11:24:22;65201.88;;;-144.08;100.00
53546;BME280;39432;51.902;10.844;2022-08-18T11:26:54;65201.88;;;-144.08;100.00
53546;BME280;39432;51.902;10.844;2022-08-18T11:29:29;65201.88;;;-144.08;100.00
53546;BME280;39432;51.902;10.844;2022-08-18T11:32:05;65201.88;;;-144.08;100.00
53546;BME280;39432;51.902;10.844;2022-08-18T11:34:40;65201.88;;;-144.08;100.00
53546;BME280;39432;51.902;10.844;2022-08-18T11:37:25;65201.88;;;-144.08;100.00
53546;BME280;39432;51.902;10.844;2022-08-18T11:40:30;65201.88;;;-144.08;100.00
53546;BME280;39432;51.902;10.844;2022-08-18T11:43:24;65201.88;;;-144.08;100.00
53546;BME280;39432;51.902;10.844;2022-08-18T11:46:15;65201.88;;;-144.08;100.00
53546;BME280;39432;51.902;10.844;2022-08-18T11:48:58;65201.88;;;-144.08;100.00
53546;BME280;39432;51.902;10.844;2022-08-18T11:51:31;65201.88;;;-144.08;100.00
53546;BME280;39432;51.902;10.844;2022-08-18T11:54:21;65201.88;;;-144.08;100.00
53546;BME280;39432;51.902;10.844;2022-08-18T11:56:51;65201.88;;;-144.08;100.00
53546;BME280;39432;51.902;10.844;2022-08-18T11:59:31;65201.88;;;-144.08;100.00
53546;BME280;39432;51.902;10.844;2022-08-18T12:02:23;65201.88;;;-144.08;100.00
53546;BME280;39432;51.902;10.844;2022-08-18T12:04:55;65201.88;;;-144.08;100.00
53546;BME280;39432;51.902;10.844;2022-08-18T12:07:40;65201.88;;;-144.08;100.00
53546;BME280;39432;51.902;10.844;2022-08-18T12:10:27;65201.88;;;-144.08;100.00
53546;BME280;39432;51.902;10.844;2022-08-18T12:12:57;65201.88;;;-144.08;100.00
53546;BME280;39432;51.902;10.844;2022-08-18T12:15:34;65201.88;;;-144.08;100.00
53546;BME280;39432;51.902;10.844;2022-08-18T12:18:13;65201.88;;;-144.08;100.00
53546;BME280;39432;51.902;10.844;2022-08-18T12:21:04;65201.88;;;-144.08;100.00
53546;BME280;39432;51.902;10.844;2022-08-18T12:23:35;65201.88;;;-144.08;100.00
53546;BME280;39432;51.902;10.844;2022-08-18T12:26:20;65201.88;;;-144.08;100.00
53546;BME280;39432;51.902;10.844;2022-08-18T12:29:04;65201.88;;;-144.08;100.00
53546;BME280;39432;51.902;10.844;2022-08-18T12:31:36;65201.88;;;-144.08;100.00
53546;BME280;39432;51.902;10.844;2022-08-18T12:34:14;65201.88;;;-144.08;100.00
53546;BME280;39432;51.902;10.844;2022-08-18T12:37:08;65201.88;;;-144.08;100.00
53546;BME280;39432;51.902;10.844;2022-08-18T12:39:59;65201.88;;;-144.08;100.00
53546;BME280;39432;51.902;10.844;2022-08-18T12:42:34;65201.88;;;-144.08;100.00
53546;BME280;39432;51.902;10.844;2022-08-18T12:45:08;65201.88;;;-144.08;100.00
53546;BME280;39432;51.902;10.844;2022-08-18T12:47:39;65201.88;;;-144.08;100.00
53546;BME280;39432;51.902;10.844;2022-08-18T12:50:09;65201.88;;;-144.08;100.00
53546;BME280;39432;51.902;10.844;2022-08-18T12:52:39;65201.88;;;-144.08;100.00
53546;BME280;39432;51.902;10.844;2022-08-18T12:55:09;65201.88;;;-144.08;100.00
53546;BME280;39432;51.902;10.844;2022-08-18T12:57:50;65201.88;;;-144.08;100.00
53546;BME280;39432;51.902;10.844;2022-08-18T13:00:20;65201.88;;;-144.08;100.00
53546;BME280;39432;51.902;10.844;2022-08-18T13:02:55;65201.88;;;-144.08;100.00
53546;BME280;39432;51.902;10.844;2022-08-18T13:05:25;65201.88;;;-144.08;100.00
53546;BME280;39432;51.902;10.844;2022-08-18T13:07:57;65201.88;;;-144.08;100.00
53546;BME280;39432;51.902;10.844;2022-08-18T13:10:30;65201.88;;;-144.08;100.00
53546;BME280;39432;51.902;10.844;2022-08-18T13:13:15;65201.88;;;-144.08;100.00
53546;BME280;39432;51.902;10.844;2022-08-18T13:15:45;65201.88;;;-144.08;100.00
53546;BME280;39432;51.902;10.844;2022-08-18T13:18:24;65201.88;;;-144.08;100.00
53546;BME280;39432;51.902;10.844;2022-08-18T13:20:55;65201.88;;;-144.08;100.00
53546;BME280;39432;51.902;10.844;2022-08-18T13:23:26;65201.88;;;-144.08;100.00
53546;BME280;39432;51.902;10.844;2022-08-18T13:25:57;65201.88;;;-144.08;100.00
53546;BME280;39432;51.902;10.844;2022-08-18T13:28:32;65201.88;;;-144.08;100.00
53546;BME280;39432;51.902;10.844;2022-08-18T13:31:22;65201.88;;;-144.08;100.00
53546;BME280;39432;51.902;10.844;2022-08-18T13:33:52;65201.88;;;-144.08;100.00
53546;BME280;39432;51.902;10.844;2022-08-18T13:36:29;65201.88;;;-144.08;100.00
53546;BME280;39432;51.902;10.844;2022-08-18T13:39:12;65201.88;;;-144.08;100.00
53546;BME280;39432;51.902;10.844;2022-08-18T13:41:43;65201.88;;;-144.08;100.00
53546;BME280;39432;51.902;10.844;2022-08-18T13:44:16;65201.88;;;-144.08;100.00
53546;BME280;39432;51.902;10.844;2022-08-18T13:46:51;65201.88;;;-144.08;100.00
53546;BME280;39432;51.902;10.844;2022-08-18T13:49:22;65201.88;;;-144.08;100.00
53546;BME280;39432;51.902;10.844;2022-08-18T13:51:56;65201.88;;;-144.08;100.00
53546;BME280;39432;51.902;10.844;2022-08-18T13:54:30;65201.88;;;-144.08;100.00
53546;BME280;39432;51.902;10.844;2022-08-18T13:57:04;65201.88;;;-144.08;100.00
53546;BME280;39432;51.902;10.844;2022-08-18T13:59:37;65201.88;;;-144.08;100.00
53546;BME280;39432;51.902;10.844;2022-08-18T14:02:12;65201.88;;;-144.08;100.00
53546;BME280;39432;51.902;10.844;2022-08-18T14:04:43;65201.88;;;-144.08;100.00
53546;BME280;39432;51.902;10.844;2022-08-18T14:07:17;65201.88;;;-144.08;100.00
53546;BME280;39432;51.902;10.844;2022-08-18T14:09:54;65201.88;;;-144.08;100.00
53546;BME280;39432;51.902;10.844;2022-08-18T14:12:29;65201.88;;;-144.08;100.00
53546;BME280;39432;51.902;10.844;2022-08-18T14:15:04;65201.88;;;-144.08;100.00
53546;BME280;39432;51.902;10.844;2022-08-18T14:17:35;65201.88;;;-144.08;100.00
53546;BME280;39432;51.902;10.844;2022-08-18T14:20:07;65201.88;;;-144.08;100.00
53546;BME280;39432;51.902;10.844;2022-08-18T14:22:54;65201.88;;;-144.08;100.00
53546;BME280;39432;51.902;10.844;2022-08-18T14:25:38;65201.88;;;-144.08;100.00
53546;BME280;39432;51.902;10.844;2022-08-18T14:28:21;65201.88;;;-144.08;100.00
53546;BME280;39432;51.902;10.844;2022-08-18T14:30:54;65201.88;;;-144.08;100.00
53546;BME280;39432;51.902;10.844;2022-08-18T14:33:27;65201.88;;;-144.08;100.00
53546;BME280;39432;51.902;10.844;2022-08-18T14:36:15;65201.88;;;-144.08;100.00
53546;BME280;39432;51.902;10.844;2022-08-18T14:38:55;65201.88;;;-144.08;100.00
53546;BME280;39432;51.902;10.844;2022-08-18T14:41:25;65201.88;;;-144.08;100.00
53546;BME280;39432;51.902;10.844;2022-08-18T14:43:56;65201.88;;;-144.08;100.00
53546;BME280;39432;51.902;10.844;2022-08-18T14:46:42;65201.88;;;-144.08;100.00
53546;BME280;39432;51.902;10.844;2022-08-18T14:49:20;65201.88;;;-144.08;100.00
53546;BME280;39432;51.902;10.844;2022-08-18T14:51:56;65201.88;;;-144.08;100.00
53546;BME280;39432;51.902;10.844;2022-08-18T14:54:26;65201.88;;;-144.08;100.00
53546;BME280;39432;51.902;10.844;2022-08-18T14:56:57;65201.88;;;-144.08;100.00
53546;BME280;39432;51.902;10.844;2022-08-18T14:59:28;65201.88;;;-144.08;100.00
53546;BME280;39432;51.902;10.844;2022-08-18T15:02:08;65201.88;;;-144.08;100.00
53546;BME280;39432;51.902;10.844;2022-08-18T15:04:39;65201.88;;;-144.08;100.00
53546;BME280;39432;51.902;10.844;2022-08-18T15:07:22;65201.88;;;-144.08;100.00
53546;BME280;39432;51.902;10.844;2022-08-18T15:09:51;65201.88;;;-144.08;100.00
53546;BME280;39432;51.902;10.844;2022-08-18T15:12:41;65201.88;;;-144.08;100.00
53546;BME280;39432;51.902;10.844;2022-08-18T15:15:12;65201.88;;;-144.08;100.00
53546;BME280;39432;51.902;10.844;2022-08-18T15:17:46;65201.88;;;-144.08;100.00
53546;BME280;39432;51.902;10.844;2022-08-18T15:20:20;65201.88;;;-144.08;100.00
53546;BME280;39432;51.902;10.844;2022-08-18T15:22:59;65201.88;;;-144.08;100.00
53546;BME280;39432;51.902;10.844;2022-08-18T15:25:43;65201.88;;;-144.08;100.00
53546;BME280;39432;51.902;10.844;2022-08-18T15:28:20;65201.88;;;-144.08;100.00
53546;BME280;39432;51.902;10.844;2022-08-18T15:30:51;65201.88;;;-144.08;100.00